• Join FlightAware (Why Join?)
  • Login
  • US Flag 
06:40AM EST


 

Airport Tracker/Info


-or-


 

Live Flight TrackerFlight Track Log ✈ UAL3589 ✈ 19-Aug-2013 ✈ KBWI - KCLE

Flight Track Log - Related Links

Times and Time Zones

All times are in EDT time to prevent confusion due to time zone crossing. See the UAL3589 flight status page for this flight to view local times or setup timezone preferences in your user account.

Time Position Orientation Groundspeed Altitude Reporting Facility
EDT Latitude Longitude Course Direction KTS MPH feet Rate Location/Type
01:23PM 39.2000 -76.7333 270° West 157 181 2,000  Level Potomac TRACON
01:23PM 39.2167 -76.7667 303° West 167 192 3,200 1,260 Climbing Potomac TRACON
01:25PM 39.1927 -76.8449 293° West  Level FlightAware Approximate
01:25PM 39.2667 -76.8833 293° West 191 220 5,700  Level Potomac TRACON
01:26PM 39.2833 -76.9500 288° West 181 208 7,000 1,140 Climbing Potomac TRACON
01:27PM 39.3000 -77.0167 288° West 182 209 8,000 600 Climbing Potomac TRACON
01:28PM 39.2000 -77.1286 270° West  Level FlightAware Approximate
01:28PM 39.3167 -77.0833 288° West 219 252 8,300  Level Potomac TRACON
01:29PM 39.3333 -77.1500 288° West 201 231 9,700 1,080 Climbing Potomac TRACON
01:30PM 39.3500 -77.2167 288° West 192 221 10,500 780 Climbing Potomac TRACON
01:33PM 39.4094 -77.3294 304° West 194 223 12,300 840 Climbing Washington Center
01:34PM 39.4653 -77.3578 339° North 194 223 13,200 840 Climbing Washington Center
01:35PM 39.5211 -77.3886 337° Northwest 205 236 14,000 780 Climbing Washington Center
01:36PM 39.5728 -77.4169 337° Northwest 205 236 14,800 840 Climbing Washington Center
01:37PM 39.6286 -77.4478 337° Northwest 210 242 15,700 840 Climbing Washington Center
01:38PM 39.6611 -77.5053 306° West 210 242 16,500 720 Climbing Washington Center
01:39PM 39.6786 -77.5731 289° West 194 223 17,200 600 Climbing Washington Center
01:41PM 39.7247 -77.7219 292° West 200 230 18,500 600 Climbing Cleveland Center
01:42PM 39.7472 -77.7886 294° West 205 236 19,200 660 Climbing Cleveland Center
01:43PM 39.7678 -77.8578 291° West 205 236 19,900 360 Climbing Cleveland Center
01:44PM 39.7903 -77.9272 293° West 205 236 20,000  Climbing Cleveland Center
01:45PM 39.8108 -78.0047 289° West 211 243 20,000  Level Cleveland Center
01:46PM 39.8375 -78.0850 293° West 225 259 20,000  Level Cleveland Center
01:47PM 39.8767 -78.1564 306° West 235 270 20,000  Level Cleveland Center
01:48PM 39.9219 -78.2253 311° West 246 283 20,000  Level Cleveland Center
01:49PM 39.9692 -78.2994 310° West 251 289 20,000  Level Cleveland Center
01:50PM 40.0122 -78.3658 310° West 244 281 20,000  Level Cleveland Center
01:51PM 40.0553 -78.4294 311° West 244 281 20,000  Level Cleveland Center
01:52PM 40.0961 -78.4986 308° West 239 275 20,000  Level Cleveland Center
01:53PM 40.1389 -78.5625 311° West 239 275 20,000  Level Cleveland Center
01:54PM 40.1797 -78.6267 310° West 239 275 20,000  Level Cleveland Center
01:55PM 40.2225 -78.6906 311° West 239 275 20,000  Level Cleveland Center
01:56PM 40.2631 -78.7547 310° West 239 275 20,000  Level Cleveland Center
01:57PM 40.3036 -78.8189 310° West 239 275 20,000  Level Cleveland Center
01:58PM 40.3444 -78.8886 308° West 239 275 20,000  Level Cleveland Center
01:59PM 40.3850 -78.9586 307° West 239 275 20,000  Level Cleveland Center
02:00PM 40.4233 -79.0258 307° West 239 275 20,000  Level Cleveland Center
02:01PM 40.4619 -79.0931 307° West 239 275 20,000  Level Cleveland Center
02:02PM 40.5022 -79.1633 307° West 239 275 20,000  Level Cleveland Center
02:03PM 40.5408 -79.2333 306° West 244 281 20,000  Level Cleveland Center
02:04PM 40.5792 -79.3036 306° West 244 281 20,000  Level Cleveland Center
02:05PM 40.6175 -79.3742 306° West 244 281 20,000  Level Cleveland Center
02:06PM 40.6556 -79.4392 308° West 244 281 20,000  Level Cleveland Center
02:07PM 40.6939 -79.5125 305° West 244 281 20,000  Level Cleveland Center
02:08PM 40.7361 -79.5828 308° West 244 281 20,000  Level Cleveland Center
02:09PM 40.7742 -79.6536 305° West 244 281 20,000  Level Cleveland Center
02:10PM 40.8122 -79.7244 305° West 244 281 20,000 -120 Level Cleveland Center
02:11PM 40.8544 -79.7981 307° West 244 281 19,800 -480 Descending Cleveland Center
02:12PM 40.8947 -79.8744 305° West 244 281 19,100 -720 Descending Cleveland Center
02:13PM 40.9411 -79.9536 308° West 259 298 18,400 -660 Descending Cleveland Center
02:14PM 40.9853 -80.0358 305° West 271 312 17,800 -600 Descending Cleveland Center
02:15PM 41.0314 -80.1181 307° West 277 319 17,300 -660 Descending Cleveland Center
02:16PM 41.0756 -80.2031 305° West 277 319 16,500 -660 Descending Cleveland Center
02:17PM 41.1217 -80.2856 307° West 284 327 16,000 -300 Descending Cleveland Center
02:18PM 41.1678 -80.3736 305° West 278 320 16,000  Level Cleveland Center
02:19PM 41.2094 -80.4506 306° West 268 308 16,000  Level Cleveland Center
02:20PM 41.2511 -80.5278 306° West 263 303 16,000  Level Cleveland Center
02:21PM 41.2931 -80.6053 306° West 256 295 16,000 -600 Level Cleveland Center
02:22PM 41.3367 -80.6883 305° West 266 306 14,800 -1,200 Descending Cleveland Center
02:23PM 41.3742 -80.7850 297° West 283 326 13,600 -1,200 Descending Cleveland Center
02:24PM 41.4092 -80.8794 296° West 288 331 12,400 -1,200 Descending Cleveland Center
02:25PM 41.4444 -80.9764 296° West 275 316 11,200 -1,080 Descending Cleveland Center
02:26PM 41.4775 -81.0625 297° West 275 316 10,300 -1,140 Descending Cleveland Center
02:27PM 41.5064 -81.1406 296° West 263 303 9,200 -720 Descending Cleveland Center
02:28PM 41.5058 -81.2264 270° West 257 296 9,000 -300 Descending Cleveland Center
02:29PM 41.4928 -81.3178 259° West 254 292 8,700 -420 Descending Cleveland Center
02:30PM 41.4817 -81.4228 262° West 262 302 8,200 -660 Descending Cleveland Center
02:31PM 41.4661 -81.5253 259° West 266 306 7,400 -660 Descending Cleveland Center
02:32PM 41.4528 -81.6219 260° West 262 302 7,000 -240 Descending Cleveland Center
02:33PM 41.4417 -81.7078 260° West 263 303 7,000  Level Cleveland Center
02:34PM 41.3867 -81.7731 222° Southwest 269 310 7,000 -360 Level Cleveland Center
02:35PM 41.3319 -81.8303 218° Southwest 243 280 6,300 -1,440 Descending Cleveland Center
02:36PM 41.2811 -81.9011 226° Southwest 248 285 4,000 -1,560 Descending Cleveland Center
02:37PM 41.2614 -81.9781 251° West 213 245 3,000 -540 Descending Cleveland Center
02:38PM 41.3050 -81.9983 341° North 209 241 3,000 -360 Level Cleveland Center
02:39PM 41.3472 -81.9578 36° Northeast 204 235 2,400 -780 Descending Cleveland Center
02:40PM 41.3769 -81.9114 49° Northeast 153 176 1,500 -900 Descending Cleveland Center